Time;durP1;ratioP1;P1;durP2;ratioP2;P2;SDS_P1;SDS_P2;PMS_P1;PMS_P2;Temp;Humidity;BMP_temperature;BMP_pressure;BME280_temperature;BME280_humidity;BME280_pressure;Samples;Min_cycle;Max_cycle;Signal;HPM_P1;HPM_P2
2023/07/02 00:00:30;;;;;;;;;45.33;35.00;;;;;21.01;47.73;100760.31;5044497;28;45308;-78
2023/07/02 00:02:56;;;;;;;;;40.33;34.33;;;;;21.35;48.13;100817.53;5042436;28;45257;-78
2023/07/02 00:05:21;;;;;;;;;46.00;36.00;;;;;20.76;48.06;100733.81;5044957;28;46062;-79
2023/07/02 00:07:47;;;;;;;;;47.67;34.00;;;;;20.41;48.15;100682.88;5039530;28;45248;-78
2023/07/02 00:10:17;;;;;;;;;48.67;36.67;;;;;21.29;48.27;100823.13;5050055;28;45459;-78
2023/07/02 00:12:44;;;;;;;;;41.33;34.33;;;;;20.44;48.36;100689.84;5008382;28;45515;-78
2023/07/02 00:15:10;;;;;;;;;48.67;34.67;;;;;21.11;48.35;100809.59;5021199;28;46347;-77
2023/07/02 00:17:40;;;;;;;;;49.00;35.67;;;;;20.70;48.36;100723.44;5022064;28;45419;-77
2023/07/02 00:20:14;;;;;;;;;45.00;33.33;;;;;21.03;48.42;100789.56;5021065;28;45474;-77
2023/07/02 00:22:44;;;;;;;;;43.67;34.33;;;;;20.30;48.54;100672.63;5042238;28;45284;-78
2023/07/02 00:25:10;;;;;;;;;42.33;32.00;;;;;20.66;48.44;100728.00;5052051;28;46717;-78
2023/07/02 00:27:37;;;;;;;;;49.67;35.00;;;;;21.12;48.75;100810.50;5052729;28;45473;-76
2023/07/02 00:30:03;;;;;;;;;47.33;36.67;;;;;21.09;49.02;100816.78;5051605;28;45158;-78
2023/07/02 00:32:28;;;;;;;;;50.00;34.67;;;;;21.07;48.83;100813.34;5041747;28;45301;-77
2023/07/02 00:34:54;;;;;;;;;43.00;34.67;;;;;21.05;48.88;100819.66;5039304;28;46007;-79
2023/07/02 00:37:20;;;;;;;;;42.00;33.67;;;;;20.47;48.93;100719.00;5022043;28;45529;-78
2023/07/02 00:39:46;;;;;;;;;37.33;31.00;;;;;21.07;48.81;100816.00;5039676;28;45337;-78
2023/07/02 00:42:12;;;;;;;;;44.67;32.33;;;;;20.51;49.06;100741.91;5038857;28;45452;-78
2023/07/02 00:44:41;;;;;;;;;39.67;34.67;;;;;20.38;49.03;100701.59;5038102;28;46013;-78
2023/07/02 00:47:13;;;;;;;;;45.33;33.33;;;;;20.30;48.83;100682.41;5038504;28;45656;-76
2023/07/02 00:49:40;;;;;;;;;45.33;31.33;;;;;21.10;48.94;100820.34;5020015;28;45422;-78
2023/07/02 00:52:05;;;;;;;;;44.00;34.00;;;;;20.77;49.30;100766.66;5038089;28;45347;-78
2023/07/02 00:54:31;;;;;;;;;43.00;33.00;;;;;21.02;49.44;100820.63;5037367;28;45407;-77
2023/07/02 00:57:02;;;;;;;;;46.33;34.33;;;;;20.57;49.65;100762.09;5037552;28;45458;-76
2023/07/02 00:59:29;;;;;;;;;37.00;31.67;;;;;20.94;49.48;100828.06;5037817;28;45548;-78
2023/07/02 01:01:56;;;;;;;;;47.67;37.67;;;;;20.89;49.78;100819.41;5042221;28;45327;-77
2023/07/02 01:04:27;;;;;;;;;45.67;34.00;;;;;20.22;49.89;100713.78;5024372;28;47825;-78
2023/07/02 01:07:00;;;;;;;;;45.67;35.00;;;;;20.80;50.16;100819.75;5043999;28;45449;-79
2023/07/02 01:09:26;;;;;;;;;44.33;34.67;;;;;20.23;50.29;100744.75;5041403;28;45493;-77
2023/07/02 01:12:07;;;;;;;;;47.33;36.00;;;;;20.73;50.20;100821.78;5052487;28;45443;-77
2023/07/02 01:14:36;;;;;;;;;49.33;36.33;;;;;20.69;50.39;100818.38;5042904;28;46170;-77
2023/07/02 01:17:04;;;;;;;;;38.67;31.33;;;;;19.98;50.71;100710.22;5043679;28;45435;-80
2023/07/02 01:19:42;;;;;;;;;43.33;34.33;;;;;20.64;50.56;100827.47;5043790;28;45447;-78
2023/07/02 01:22:08;;;;;;;;;38.00;31.67;;;;;20.59;50.81;100819.66;5043103;28;45273;-78
2023/07/02 01:24:35;;;;;;;;;48.33;35.67;;;;;20.63;50.51;100828.41;5043018;28;45634;-81
2023/07/02 01:27:01;;;;;;;;;41.00;34.33;;;;;20.61;50.80;100833.75;5044706;28;45393;-80
2023/07/02 01:29:30;;;;;;;;;41.00;31.67;;;;;20.61;51.02;100841.75;5027802;28;45328;-80
2023/07/02 01:31:56;;;;;;;;;43.67;35.67;;;;;20.24;50.55;100781.94;5044433;28;45363;-81
2023/07/02 01:34:22;;;;;;;;;50.67;37.33;;;;;20.47;50.62;100820.09;5043584;28;46058;-78
2023/07/02 01:36:48;;;;;;;;;48.67;33.67;;;;;20.57;51.08;100849.91;5042197;28;45391;-77
2023/07/02 01:39:13;;;;;;;;;47.67;36.00;;;;;20.54;51.17;100834.88;5040753;28;45288;-77
2023/07/02 01:41:53;;;;;;;;;42.33;33.67;;;;;20.47;51.19;100850.22;5042402;28;45442;-77
2023/07/02 01:44:19;;;;;;;;;48.67;31.00;;;;;20.36;51.23;100828.50;5041830;28;45460;-76
2023/07/02 01:46:48;;;;;;;;;47.33;35.67;;;;;20.28;51.36;100804.81;5042322;28;45604;-78
2023/07/02 01:49:15;;;;;;;;;44.00;35.00;;;;;20.47;51.45;100830.72;5041075;28;45387;-76
2023/07/02 01:51:44;;;;;;;;;48.00;35.67;;;;;20.47;51.23;100844.88;5022961;28;45474;-79
2023/07/02 01:54:09;;;;;;;;;48.33;30.33;;;;;19.88;51.34;100734.53;5040431;28;45280;-77
2023/07/02 01:56:35;;;;;;;;;35.33;30.67;;;;;19.97;51.50;100757.22;5041044;28;45410;-78
2023/07/02 01:59:01;;;;;;;;;45.33;34.67;;;;;19.65;51.60;100715.84;5043418;28;46154;-76
2023/07/02 02:01:26;;;;;;;;;50.00;34.00;;;;;19.40;51.79;100668.03;5043084;28;45414;-78
2023/07/02 02:03:52;;;;;;;;;40.33;32.67;;;;;19.98;51.78;100772.25;5042427;28;46348;-77
2023/07/02 02:06:18;;;;;;;;;40.67;29.67;;;;;20.32;51.77;100841.00;5041659;28;45347;-79
2023/07/02 02:08:43;;;;;;;;;41.67;33.67;;;;;19.56;52.14;100724.16;5042351;28;45214;-78
2023/07/02 02:11:09;;;;;;;;;39.33;33.33;;;;;20.33;52.10;100841.88;5041562;28;45450;-77
2023/07/02 02:13:35;;;;;;;;;38.00;31.67;;;;;20.30;52.28;100832.22;5040334;28;45593;-78
2023/07/02 02:16:00;;;;;;;;;39.67;30.00;;;;;19.76;52.57;100747.38;5040088;28;45474;-78
2023/07/02 02:18:26;;;;;;;;;36.67;32.67;;;;;19.91;52.33;100774.28;5041025;28;45346;-78
2023/07/02 02:20:51;;;;;;;;;42.33;31.00;;;;;20.15;52.33;100832.78;5040984;28;45433;-79
2023/07/02 02:23:17;;;;;;;;;38.33;30.67;;;;;20.09;52.37;100822.38;5041407;28;45504;-77
2023/07/02 02:25:43;;;;;;;;;41.33;33.67;;;;;19.72;52.52;100759.91;5041290;28;45469;-78
2023/07/02 02:28:08;;;;;;;;;36.00;28.33;;;;;20.20;52.37;100846.78;5023680;28;45308;-77
2023/07/02 02:30:34;;;;;;;;;39.33;32.33;;;;;19.72;52.82;100770.53;5022417;28;45329;-76
2023/07/02 02:32:59;;;;;;;;;37.67;26.33;;;;;20.25;52.68;100851.94;5022787;28;46937;-78
2023/07/02 02:35:25;;;;;;;;;37.00;31.33;;;;;20.24;52.22;100845.75;5041074;28;45465;-77
2023/07/02 02:37:51;;;;;;;;;42.33;30.67;;;;;19.87;52.56;100780.59;5023744;28;45478;-78
2023/07/02 02:40:16;;;;;;;;;36.33;27.33;;;;;20.25;52.66;100843.97;5042106;28;45482;-78
2023/07/02 02:42:42;;;;;;;;;32.33;30.33;;;;;19.95;52.66;100816.69;5040731;28;45379;-76
2023/07/02 02:45:08;;;;;;;;;46.33;33.33;;;;;20.11;52.73;100829.38;5042860;28;45267;-79
2023/07/02 02:47:34;;;;;;;;;47.33;33.00;;;;;20.17;53.00;100844.25;5043976;28;45290;-78
2023/07/02 02:50:00;;;;;;;;;35.67;30.00;;;;;19.51;52.84;100729.63;5045011;28;45328;-81
2023/07/02 02:52:26;;;;;;;;;33.00;29.33;;;;;20.08;53.20;100855.22;5043122;28;45408;-78
2023/07/02 02:54:55;;;;;;;;;40.67;31.00;;;;;19.32;53.12;100747.13;5023395;28;45410;-81
2023/07/02 02:57:20;;;;;;;;;37.33;28.33;;;;;18.97;52.82;100678.34;5041291;28;45399;-80
2023/07/02 02:59:46;;;;;;;;;41.00;32.00;;;;;19.96;53.44;100839.69;5022922;28;45373;-80
2023/07/02 03:02:11;;;;;;;;;32.67;28.00;;;;;19.81;53.54;100830.44;5040331;28;46389;-80
2023/07/02 03:04:41;;;;;;;;;41.33;30.67;;;;;19.29;53.67;100750.72;5039619;28;45221;-76
2023/07/02 03:07:09;;;;;;;;;35.67;29.33;;;;;19.85;53.70;100853.34;5022025;28;45533;-78
2023/07/02 03:09:35;;;;;;;;;37.33;27.67;;;;;18.84;53.77;100687.66;5039841;28;45367;-77
2023/07/02 03:12:01;;;;;;;;;34.33;28.00;;;;;19.22;53.95;100742.13;5021759;28;47672;-78
2023/07/02 03:14:26;;;;;;;;;34.33;30.00;;;;;19.51;53.93;100811.97;5040428;28;45490;-77
2023/07/02 03:16:52;;;;;;;;;34.33;25.00;;;;;19.39;53.46;100775.19;5021322;28;45277;-77
2023/07/02 03:19:17;;;;;;;;;40.00;26.67;;;;;19.51;53.63;100804.00;5039225;28;45689;-78
2023/07/02 03:21:44;;;;;;;;;37.67;28.67;;;;;19.79;53.87;100857.09;5038835;28;45549;-76
2023/07/02 03:24:13;;;;;;;;;44.67;32.33;;;;;19.80;53.83;100868.59;5039791;28;45341;-80
2023/07/02 03:26:39;;;;;;;;;32.67;28.67;;;;;19.41;54.08;100794.56;5022102;28;45395;-78
2023/07/02 03:29:06;;;;;;;;;36.67;28.00;;;;;19.51;54.15;100822.59;5039832;28;45442;-78
2023/07/02 03:31:32;;;;;;;;;27.33;25.67;;;;;19.31;54.08;100780.75;5022876;28;46789;-76
2023/07/02 03:33:57;;;;;;;;;33.00;26.67;;;;;19.33;54.04;100783.34;5042580;28;45380;-76
2023/07/02 03:36:23;;;;;;;;;39.00;31.00;;;;;19.57;53.91;100837.44;5042353;28;45463;-77
2023/07/02 03:38:48;;;;;;;;;34.67;26.00;;;;;19.22;54.29;100781.94;5042698;28;45150;-76
2023/07/02 03:41:14;;;;;;;;;34.33;28.33;;;;;19.69;54.62;100868.94;5046982;28;45269;-77
2023/07/02 03:43:40;;;;;;;;;35.67;25.33;;;;;19.28;54.66;100810.94;5054062;28;45359;-78
2023/07/02 03:46:06;;;;;;;;;39.33;30.00;;;;;19.68;54.46;100877.84;5062038;28;44801;-79
2023/07/02 03:48:31;;;;;;;;;35.67;24.33;;;;;19.68;54.81;100896.44;5061876;28;44777;-76
2023/07/02 03:50:57;;;;;;;;;46.67;30.00;;;;;19.30;54.65;100818.84;5054691;28;45356;-75
2023/07/02 03:53:24;;;;;;;;;34.00;26.33;;;;;19.40;54.44;100853.94;5039976;28;45486;-77
2023/07/02 03:55:49;;;;;;;;;34.67;25.00;;;;;19.12;54.95;100804.38;5041221;28;45431;-78
2023/07/02 03:58:15;;;;;;;;;30.00;27.00;;;;;19.55;54.79;100857.88;5022019;28;45237;-79
2023/07/02 04:00:41;;;;;;;;;38.00;29.33;;;;;19.61;54.82;100874.47;5039253;28;45343;-78
2023/07/02 04:03:07;;;;;;;;;36.33;26.33;;;;;19.23;54.60;100818.19;5039516;28;45442;-78
2023/07/02 04:05:32;;;;;;;;;30.67;27.33;;;;;19.73;54.58;100897.16;5039385;28;45604;-77
2023/07/02 04:07:59;;;;;;;;;35.67;24.67;;;;;18.85;54.62;100761.03;5038791;28;45411;-77
2023/07/02 04:10:25;;;;;;;;;28.67;25.33;;;;;19.75;54.45;100900.63;5038522;28;45469;-76
2023/07/02 04:12:52;;;;;;;;;31.33;22.33;;;;;19.53;54.55;100857.94;5038005;28;45383;-77
2023/07/02 04:15:17;;;;;;;;;32.67;24.00;;;;;19.77;54.42;100898.81;5021170;28;45315;-76
2023/07/02 04:17:43;;;;;;;;;27.00;22.00;;;;;19.04;54.64;100778.09;5041169;28;45440;-76
2023/07/02 04:20:09;;;;;;;;;30.00;27.67;;;;;19.45;54.33;100842.25;5040197;28;45480;-77
2023/07/02 04:22:35;;;;;;;;;28.67;24.33;;;;;19.80;54.32;100904.00;5023344;28;45463;-75
2023/07/02 04:25:01;;;;;;;;;32.33;26.67;;;;;19.81;54.34;100913.72;5019784;28;45507;-76
2023/07/02 04:27:26;;;;;;;;;31.00;24.33;;;;;19.26;54.22;100809.25;5020966;28;45547;-76
2023/07/02 04:29:54;;;;;;;;;31.33;25.00;;;;;19.83;55.16;100909.22;5039204;28;46643;-75
2023/07/02 04:32:20;;;;;;;;;31.00;27.67;;;;;19.90;55.17;100913.41;5037498;28;45419;-73
2023/07/02 04:34:45;;;;;;;;;38.00;26.67;;;;;19.57;55.61;100843.63;5017996;28;45328;-73
2023/07/02 04:37:11;;;;;;;;;30.33;28.00;;;;;20.07;55.05;100920.81;5018232;28;45532;-75
2023/07/02 04:39:36;;;;;;;;;28.33;23.00;;;;;20.17;54.61;100925.78;5038612;28;46504;-75
2023/07/02 04:42:02;;;;;;;;;30.67;25.00;;;;;19.55;54.33;100799.44;5021240;28;45404;-77
2023/07/02 04:44:31;;;;;;;;;30.67;25.67;;;;;20.10;54.25;100877.31;5039572;28;45540;-77
2023/07/02 04:47:02;;;;;;;;;31.67;21.67;;;;;20.47;53.61;100915.88;5038324;28;45249;-77
2023/07/02 04:49:28;;;;;;;;;29.33;21.00;;;;;20.14;53.79;100847.00;5037493;28;45511;-76
2023/07/02 04:51:56;;;;;;;;;28.00;21.33;;;;;19.79;53.35;100773.81;5039124;28;45453;-75
2023/07/02 04:54:23;;;;;;;;;28.67;21.67;;;;;20.69;52.65;100926.63;5038439;28;45352;-75
2023/07/02 04:56:49;;;;;;;;;31.33;26.33;;;;;20.21;52.78;100816.59;5038870;28;45439;-74
2023/07/02 04:59:15;;;;;;;;;29.67;26.33;;;;;20.93;52.71;100916.88;5038018;28;45558;-74
2023/07/02 05:01:41;;;;;;;;;29.00;22.33;;;;;20.98;52.35;100916.69;5037722;28;45463;-74
2023/07/02 05:04:09;;;;;;;;;25.33;24.67;;;;;20.16;51.66;100777.81;5041181;28;45489;-74
2023/07/02 05:06:35;;;;;;;;;27.67;23.67;;;;;20.18;51.81;100774.16;5022228;28;45343;-74
2023/07/02 05:09:02;;;;;;;;;29.67;24.67;;;;;21.05;51.83;100919.06;5039187;28;45475;-74
2023/07/02 05:11:28;;;;;;;;;29.00;22.00;;;;;20.46;52.10;100826.34;5020454;28;45320;-74
2023/07/02 05:13:53;;;;;;;;;28.67;21.67;;;;;21.05;51.68;100911.06;5020065;28;45517;-75
2023/07/02 05:16:19;;;;;;;;;27.00;22.67;;;;;20.91;51.88;100884.09;5037924;28;45359;-75
2023/07/02 05:18:44;;;;;;;;;25.00;23.00;;;;;20.71;51.40;100834.28;5037729;28;46083;-74
2023/07/02 05:21:11;;;;;;;;;33.33;25.67;;;;;20.77;51.47;100833.19;5038141;28;45284;-75
2023/07/02 05:23:37;;;;;;;;;22.67;20.33;;;;;20.73;51.47;100825.31;5038344;28;45428;-74
2023/07/02 05:26:03;;;;;;;;;30.67;23.67;;;;;21.31;51.06;100906.50;5019856;28;45533;-74
2023/07/02 05:28:29;;;;;;;;;24.00;22.00;;;;;20.91;51.22;100828.19;5036458;28;45564;-74
2023/07/02 05:30:55;;;;;;;;;30.00;22.67;;;;;21.25;50.49;100874.78;5036534;28;45516;-73
2023/07/02 05:33:21;;;;;;;;;31.00;24.00;;;;;20.86;49.92;100787.59;5035399;28;45442;-73
2023/07/02 05:35:47;;;;;;;;;29.67;21.00;;;;;21.46;49.90;100865.09;5038472;28;45391;-74
2023/07/02 05:38:13;;;;;;;;;31.00;23.33;;;;;21.86;49.89;100938.94;5037350;28;46171;-74
2023/07/02 05:40:39;;;;;;;;;22.00;22.00;;;;;21.46;49.77;100860.63;5037102;28;45379;-74
2023/07/02 05:43:05;;;;;;;;;30.33;28.00;;;;;21.75;49.60;100923.38;5038614;28;45495;-75
2023/07/02 05:45:30;;;;;;;;;25.67;22.33;;;;;21.78;49.92;100923.25;5037068;28;45272;-74
2023/07/02 05:47:56;;;;;;;;;23.33;22.67;;;;;21.11;49.96;100817.59;5041731;28;45456;-75
2023/07/02 05:50:21;;;;;;;;;31.33;22.33;;;;;21.30;49.91;100854.16;5025822;28;45541;-75
2023/07/02 05:52:47;;;;;;;;;33.67;28.33;;;;;21.43;49.79;100886.50;5042077;28;45312;-76
2023/07/02 05:55:12;;;;;;;;;31.67;25.00;;;;;21.17;49.88;100857.31;5040197;28;45423;-76
2023/07/02 05:57:38;;;;;;;;;28.33;24.33;;;;;21.43;49.84;100884.72;5041000;28;45632;-76
2023/07/02 06:00:05;;;;;;;;;23.67;22.00;;;;;21.40;49.72;100863.53;5040929;28;45434;-73
2023/07/02 06:02:32;;;;;;;;;26.67;22.67;;;;;21.42;49.71;100863.47;5040992;28;45423;-75
2023/07/02 06:04:57;;;;;;;;;28.00;22.33;;;;;21.53;49.62;100887.88;5041147;28;45359;-75
2023/07/02 06:07:24;;;;;;;;;31.67;23.00;;;;;21.14;49.39;100820.16;5040672;28;45416;-75
2023/07/02 06:09:50;;;;;;;;;27.33;21.00;;;;;21.37;49.80;100860.94;5039877;28;45483;-75
2023/07/02 06:12:15;;;;;;;;;28.67;20.33;;;;;21.74;49.53;100920.78;5038978;28;45430;-74
2023/07/02 06:14:41;;;;;;;;;24.67;22.67;;;;;21.96;49.46;100960.75;5039472;28;45390;-74
2023/07/02 06:17:16;;;;;;;;;29.00;25.33;;;;;22.01;49.12;100967.59;5039445;28;45487;-73
2023/07/02 06:19:41;;;;;;;;;27.33;23.33;;;;;21.90;49.29;100921.88;5039167;28;45432;-75
2023/07/02 06:22:07;;;;;;;;;31.00;26.00;;;;;21.93;48.95;100935.06;5040681;28;45499;-75
2023/07/02 06:24:32;;;;;;;;;27.00;22.67;;;;;21.94;49.12;100923.47;5021410;28;45399;-74
2023/07/02 06:27:02;;;;;;;;;28.33;22.00;;;;;22.12;49.17;100959.16;5039453;28;46273;-73
2023/07/02 06:29:28;;;;;;;;;28.33;24.67;;;;;21.76;49.22;100902.94;5039343;28;45534;-76
2023/07/02 06:31:54;;;;;;;;;28.67;22.67;;;;;21.75;49.04;100901.19;5040976;28;45427;-74
2023/07/02 06:34:20;;;;;;;;;31.33;19.33;;;;;21.93;49.20;100943.06;5041477;28;45521;-75
2023/07/02 06:36:46;;;;;;;;;27.67;22.33;;;;;21.59;49.07;100877.84;5040424;28;45327;-76
2023/07/02 06:39:12;;;;;;;;;25.00;25.00;;;;;22.25;48.81;100969.34;5021811;28;45361;-75
2023/07/02 06:41:38;;;;;;;;;28.33;22.33;;;;;21.81;48.85;100904.47;5040971;28;45437;-74
2023/07/02 06:44:04;;;;;;;;;26.33;23.67;;;;;22.28;48.79;100988.78;5039564;28;45390;-74
2023/07/02 06:46:31;;;;;;;;;29.33;22.67;;;;;22.10;48.96;100947.69;5038950;28;46081;-73
2023/07/02 06:48:56;;;;;;;;;28.33;24.67;;;;;22.07;48.77;100928.25;5038940;28;45263;-74
2023/07/02 06:51:33;;;;;;;;;29.00;27.33;;;;;22.30;48.73;100962.00;5039820;28;45482;-73
2023/07/02 06:54:01;;;;;;;;;31.00;23.67;;;;;22.44;48.76;100999.63;5051710;28;44928;-74
2023/07/02 06:56:28;;;;;;;;;21.67;18.33;;;;;22.47;48.56;100995.97;5031759;28;46988;-72
2023/07/02 06:58:56;;;;;;;;;28.00;21.33;;;;;22.51;48.50;100998.44;5044694;28;45419;-73
2023/07/02 07:01:23;;;;;;;;;25.00;20.00;;;;;22.02;48.25;100896.50;5032518;28;45430;-74
2023/07/02 07:03:48;;;;;;;;;29.00;23.33;;;;;21.82;48.06;100862.66;5029887;28;45623;-74
2023/07/02 07:06:14;;;;;;;;;32.67;27.00;;;;;22.47;47.97;100962.16;5040799;28;45498;-74
2023/07/02 07:08:40;;;;;;;;;25.33;21.33;;;;;22.52;48.09;100962.81;5042481;28;45395;-74
2023/07/02 07:11:06;;;;;;;;;32.00;25.33;;;;;22.37;47.99;100926.97;5041626;28;45451;-75
2023/07/02 07:13:31;;;;;;;;;26.00;20.67;;;;;22.79;48.00;100994.56;5021651;28;45441;-74
2023/07/02 07:15:58;;;;;;;;;28.67;25.67;;;;;22.49;47.79;100933.56;5039012;28;45598;-73
2023/07/02 07:18:33;;;;;;;;;29.00;24.00;;;;;22.95;47.72;100981.38;5039311;28;45512;-77
2023/07/02 07:21:12;;;;;;;;;29.00;25.67;;;;;23.14;47.00;100990.31;5038661;28;45395;-75
2023/07/02 07:23:41;;;;;;;;;28.33;23.00;;;;;22.95;46.88;100944.00;5038374;28;45391;-75
2023/07/02 07:26:06;;;;;;;;;34.67;26.00;;;;;23.21;46.77;100950.81;5038380;28;45501;-75
2023/07/02 07:28:32;;;;;;;;;26.67;22.67;;;;;22.65;46.38;100864.34;5038075;28;45468;-74
2023/07/02 07:30:58;;;;;;;;;25.33;22.00;;;;;23.41;46.54;101003.31;5038148;28;45416;-75
2023/07/02 07:33:24;;;;;;;;;27.00;23.67;;;;;23.56;46.05;100991.88;5038966;28;45498;-75
2023/07/02 07:35:49;;;;;;;;;28.33;23.00;;;;;23.24;46.00;100931.94;5038197;28;45467;-73
2023/07/02 07:38:15;;;;;;;;;30.33;25.00;;;;;23.36;46.48;100950.06;5037782;28;45462;-73
2023/07/02 07:40:42;;;;;;;;;37.33;27.33;;;;;23.58;45.90;100981.97;5038580;28;45339;-73
2023/07/02 07:43:08;;;;;;;;;26.67;23.67;;;;;23.40;45.92;100953.47;5020609;28;45372;-75
2023/07/02 07:45:34;;;;;;;;;23.00;16.33;;;;;22.78;46.06;100843.25;5037736;28;45584;-76
2023/07/02 07:48:00;;;;;;;;;25.67;22.67;;;;;23.31;45.65;100929.88;5039523;28;45318;-73
2023/07/02 07:50:25;;;;;;;;;32.67;23.67;;;;;23.37;45.78;100951.81;5039801;28;45366;-76
2023/07/02 07:52:51;;;;;;;;;25.33;22.00;;;;;23.15;45.74;100903.00;5038619;28;45449;-76
2023/07/02 07:55:17;;;;;;;;;26.67;22.00;;;;;23.47;45.88;100945.09;5039220;28;45391;-76
2023/07/02 07:57:43;;;;;;;;;28.33;23.33;;;;;23.43;44.85;100903.41;5041335;28;45778;-75
2023/07/02 08:00:11;;;;;;;;;22.00;21.33;;;;;23.56;44.66;100926.84;5039857;28;45509;-78
2023/07/02 08:02:37;;;;;;;;;24.67;21.33;;;;;23.66;44.68;100920.97;5035774;28;45510;-77
2023/07/02 08:05:04;;;;;;;;;28.67;19.33;;;;;23.58;45.11;100932.97;5027932;28;46217;-79
2023/07/02 08:07:33;;;;;;;;;28.67;21.00;;;;;24.12;44.53;101004.28;5030173;28;45446;-78
2023/07/02 08:09:59;;;;;;;;;28.67;25.33;;;;;23.43;44.91;100891.84;5038009;28;45418;-78
2023/07/02 08:12:27;;;;;;;;;29.00;24.33;;;;;23.78;44.45;100959.66;5038909;28;45459;-77
2023/07/02 08:14:53;;;;;;;;;30.33;26.00;;;;;23.48;44.88;100922.75;5038392;28;46538;-80
2023/07/02 08:17:18;;;;;;;;;23.33;23.33;;;;;23.95;44.64;100982.88;5020495;28;45375;-80
2023/07/02 08:19:44;;;;;;;;;31.33;27.33;;;;;23.84;44.55;100961.16;5038096;28;45240;-79
2023/07/02 08:22:10;;;;;;;;;32.67;26.33;;;;;24.06;44.91;101001.06;5039166;28;45380;-78
2023/07/02 08:24:35;;;;;;;;;33.33;24.67;;;;;24.05;44.48;101008.22;5038692;28;45611;-78
2023/07/02 08:27:02;;;;;;;;;29.00;24.33;;;;;24.01;44.74;101009.31;5038474;28;45427;-77
2023/07/02 08:29:29;;;;;;;;;28.33;24.33;;;;;23.77;44.85;100970.41;5040250;28;45480;-77
2023/07/02 08:31:55;;;;;;;;;29.33;23.33;;;;;23.95;44.59;101009.63;5039455;28;45437;-77
2023/07/02 08:34:21;;;;;;;;;26.33;23.33;;;;;23.96;44.44;101014.03;5037566;28;46852;-78
2023/07/02 08:36:46;;;;;;;;;23.67;22.67;;;;;23.48;44.79;100953.97;5039024;28;46210;-79
2023/07/02 08:39:12;;;;;;;;;30.67;24.33;;;;;23.88;44.32;101021.56;5022221;28;45289;-79
2023/07/02 08:41:46;;;;;;;;;28.50;25.50;;;;;23.86;44.60;101026.13;5040353;28;45388;-76
2023/07/02 08:44:13;;;;;;;;;28.33;22.00;;;;;23.80;44.49;101016.63;5040779;28;45335;-79
2023/07/02 08:46:41;;;;;;;;;27.00;25.67;;;;;23.12;44.34;100898.66;5040651;28;45250;-78
2023/07/02 08:49:08;;;;;;;;;33.00;27.33;;;;;24.00;44.12;101014.75;5020417;28;45393;-78
2023/07/02 08:51:37;;;;;;;;;30.00;26.00;;;;;24.02;43.28;101032.47;5037341;28;45494;-77
2023/07/02 08:54:03;;;;;;;;;30.33;25.33;;;;;22.94;43.93;100830.06;5037054;28;46395;-75
2023/07/02 08:56:36;;;;;;;;;28.67;21.33;;;;;23.55;43.88;100963.41;5037317;28;45541;-77
2023/07/02 08:59:03;;;;;;;;;31.00;26.67;;;;;23.41;43.98;100932.00;5037591;28;45469;-76
2023/07/02 09:01:33;;;;;;;;;4.67;2.33;;;;;23.69;43.58;100957.41;5019622;28;45289;-74
2023/07/02 09:04:00;;;;;;;;;22.33;21.67;;;;;24.22;43.20;101027.91;5036861;28;46579;-75
2023/07/02 09:06:26;;;;;;;;;26.00;21.33;;;;;23.80;43.04;100939.06;5019098;28;45405;-75
2023/07/02 09:08:52;;;;;;;;;25.00;21.67;;;;;24.52;42.79;101012.16;5037192;28;45739;-75
2023/07/02 09:11:19;;;;;;;;;31.00;21.00;;;;;24.27;42.41;100962.50;5021593;28;45343;-75
2023/07/02 09:14:01;;;;;;;;;27.33;20.00;;;;;24.52;41.49;100977.34;5039700;28;45556;-76
2023/07/02 09:16:28;;;;;;;;;31.33;23.67;;;;;24.03;40.62;100924.50;5037544;28;45316;-75
2023/07/02 09:19:12;;;;;;;;;26.00;21.00;;;;;24.45;40.02;101014.22;5037713;28;45379;-76
2023/07/02 09:21:49;;;;;;;;;25.67;18.33;;;;;24.45;40.71;101002.66;5039474;28;45352;-75
2023/07/02 09:24:24;;;;;;;;;20.33;19.67;;;;;24.37;40.70;101000.41;5042718;28;46099;-77
2023/07/02 09:26:53;;;;;;;;;23.00;20.67;;;;;23.55;42.21;100877.00;5023835;28;45387;-77
2023/07/02 09:29:34;;;;;;;;;33.33;22.33;;;;;24.49;41.44;101006.97;5024265;28;45642;-77
2023/07/02 09:32:07;;;;;;;;;26.00;21.33;;;;;24.19;40.85;100955.81;5041244;28;45307;-74
2023/07/02 09:34:35;;;;;;;;;27.33;19.33;;;;;23.95;40.19;100918.69;5039701;28;45517;-75
2023/07/02 09:37:03;;;;;;;;;22.00;18.67;;;;;24.04;39.78;100936.94;5040549;28;45423;-75
2023/07/02 09:39:31;;;;;;;;;22.00;18.00;;;;;24.42;40.42;101013.53;5040403;28;45441;-74
2023/07/02 09:41:58;;;;;;;;;24.67;17.00;;;;;23.77;40.92;100912.44;5042267;28;45507;-76
2023/07/02 09:44:32;;;;;;;;;24.67;21.00;;;;;23.53;40.57;100849.47;5040743;28;45874;-76
2023/07/02 09:47:08;;;;;;;;;30.33;24.67;;;;;24.68;39.63;101007.72;5041506;28;45414;-74
2023/07/02 09:49:45;;;;;;;;;26.33;21.67;;;;;24.78;39.99;101008.09;5040355;28;45685;-77
2023/07/02 09:52:12;;;;;;;;;25.00;20.33;;;;;24.93;39.37;101003.72;5040104;28;45676;-77
2023/07/02 09:54:53;;;;;;;;;25.00;19.00;;;;;24.79;38.33;100987.53;5040456;28;45420;-74
2023/07/02 09:57:19;;;;;;;;;28.00;21.67;;;;;24.74;38.82;100991.31;5023668;28;45296;-78
2023/07/02 09:59:50;;;;;;;;;23.00;22.00;;;;;24.78;38.87;101009.91;5040794;28;45855;-76
2023/07/02 10:02:17;;;;;;;;;19.00;17.67;;;;;24.72;38.91;101008.41;5042143;28;45501;-74
2023/07/02 10:04:55;;;;;;;;;20.33;18.33;;;;;24.58;38.25;100998.41;5040209;28;47122;-80
2023/07/02 10:07:35;;;;;;;;;26.67;19.00;;;;;24.62;38.49;101008.03;5042464;28;45391;-77
2023/07/02 10:10:14;;;;;;;;;26.33;20.00;;;;;24.78;39.11;100999.19;5043879;28;45336;-76
2023/07/02 10:12:47;;;;;;;;;22.00;19.33;;;;;24.73;38.14;100989.59;5040572;28;45243;-73
2023/07/02 10:15:27;;;;;;;;;19.33;18.33;;;;;24.81;38.58;100977.59;5044224;28;45327;-73
2023/07/02 10:18:02;;;;;;;;;24.00;21.67;;;;;25.06;38.58;101006.63;5042964;28;44825;-71
2023/07/02 10:20:38;;;;;;;;;20.00;15.67;;;;;25.22;38.63;101001.31;5039751;28;45443;-72
2023/07/02 10:23:05;;;;;;;;;28.33;21.67;;;;;25.14;37.26;100991.84;5021546;28;45527;-76
2023/07/02 10:25:37;;;;;;;;;21.00;11.33;;;;;24.80;37.05;100946.41;5039945;28;46282;-75
2023/07/02 10:28:26;;;;;;;;;21.50;19.50;;;;;25.06;36.92;100990.53;5022842;28;45407;-73
2023/07/02 10:30:53;;;;;;;;;19.67;16.33;;;;;24.98;37.27;100986.44;5039408;28;45202;-76
2023/07/02 10:33:20;;;;;;;;;25.67;19.33;;;;;24.91;37.62;100995.75;5039477;28;45449;-76
2023/07/02 10:35:49;;;;;;;;;19.67;17.33;;;;;24.83;37.77;100983.75;5040735;28;45521;-76
2023/07/02 10:38:18;;;;;;;;;23.33;16.33;;;;;24.98;37.55;101001.66;5022366;28;46133;-73
2023/07/02 10:40:45;;;;;;;;;24.00;18.33;;;;;24.95;37.94;100964.31;5039827;28;45239;-70
2023/07/02 10:43:10;;;;;;;;;21.33;17.00;;;;;25.27;38.24;100984.03;5041721;28;45240;-71
2023/07/02 10:45:36;;;;;;;;;23.00;19.33;;;;;25.30;36.85;100985.69;5041826;28;46474;-79
2023/07/02 10:48:10;;;;;;;;;19.33;16.00;;;;;25.23;36.72;100981.59;5040031;28;45497;-77
2023/07/02 10:50:36;;;;;;;;;23.00;20.00;;;;;25.13;36.78;100960.63;5021482;28;45454;-76
2023/07/02 10:53:03;;;;;;;;;20.67;16.67;;;;;25.05;37.09;100953.97;5039223;28;45346;-79
2023/07/02 10:55:28;;;;;;;;;27.00;17.67;;;;;24.92;36.39;100919.81;5038252;28;45409;-79
2023/07/02 10:58:07;;;;;;;;;24.00;19.33;;;;;25.36;36.29;100978.13;5038431;28;45426;-78
2023/07/02 11:00:44;;;;;;;;;25.00;18.67;;;;;25.37;35.72;100968.28;5020711;28;45396;-80
2023/07/02 11:03:20;;;;;;;;;22.67;16.67;;;;;25.40;36.15;100960.06;5039668;28;45340;-76
2023/07/02 11:05:47;;;;;;;;;18.00;17.67;;;;;25.62;35.47;100980.31;5040886;28;45642;-82
2023/07/02 11:08:13;;;;;;;;;23.00;19.67;;;;;25.20;35.38;100912.06;5022300;28;45426;-81
2023/07/02 11:10:39;;;;;;;;;22.67;18.00;;;;;25.42;35.48;100927.81;5038886;28;45624;-76